Time;durP1;ratioP1;P1;durP2;ratioP2;P2;SDS_P1;SDS_P2;PMS_P1;PMS_P2;Temp;Humidity;BMP_temperature;BMP_pressure;BME280_temperature;BME280_humidity;BME280_pressure;Samples;Min_cycle;Max_cycle;Signal;HPM_P1;HPM_P2
2021/09/10 00:01:11;;;;;;;5.38;2.63;;;21.70;82.50;;;;;;5042936;28;20124;-76
2021/09/10 00:03:38;;;;;;;4.00;2.72;;;21.70;83.20;;;;;;5028315;28;20049;-76
2021/09/10 00:06:06;;;;;;;4.13;2.35;;;21.60;82.70;;;;;;5026363;28;20055;-76
2021/09/10 00:08:33;;;;;;;3.55;2.45;;;21.60;82.70;;;;;;5046929;28;20078;-75
2021/09/10 00:11:00;;;;;;;4.00;2.78;;;21.50;82.80;;;;;;5043977;28;20065;-76
2021/09/10 00:13:27;;;;;;;3.85;2.35;;;21.50;82.90;;;;;;5039966;28;20051;-76
2021/09/10 00:15:55;;;;;;;3.63;2.33;;;21.50;83.10;;;;;;5044853;28;20042;-76
2021/09/10 00:18:22;;;;;;;6.15;3.25;;;21.40;83.10;;;;;;5042650;28;20033;-75
2021/09/10 00:20:50;;;;;;;4.88;2.97;;;21.40;83.20;;;;;;5041793;28;20040;-76
2021/09/10 00:23:17;;;;;;;3.80;2.45;;;21.30;83.20;;;;;;5043168;28;20119;-76
2021/09/10 00:25:44;;;;;;;4.50;2.30;;;21.30;83.40;;;;;;5043544;28;20079;-76
2021/09/10 00:28:11;;;;;;;4.18;2.45;;;21.30;84.10;;;;;;5026276;28;20045;-76
2021/09/10 00:30:38;;;;;;;4.53;2.70;;;21.20;83.40;;;;;;5042635;28;20468;-76
2021/09/10 00:33:05;;;;;;;4.25;2.40;;;21.20;83.50;;;;;;5043289;28;20045;-76
2021/09/10 00:35:32;;;;;;;4.45;2.65;;;21.20;83.70;;;;;;5042421;28;20076;-75
2021/09/10 00:37:59;;;;;;;4.18;2.67;;;21.20;83.70;;;;;;5025335;28;20546;-76
2021/09/10 00:40:26;;;;;;;5.97;2.47;;;21.20;83.80;;;;;;4993850;28;20044;-76
2021/09/10 00:42:53;;;;;;;5.03;3.10;;;21.10;83.80;;;;;;5025438;28;20049;-76
2021/09/10 00:45:20;;;;;;;3.85;2.45;;;21.10;83.90;;;;;;5042536;28;20052;-76
2021/09/10 00:47:47;;;;;;;6.45;3.42;;;21.10;83.90;;;;;;5038827;28;20041;-76
2021/09/10 00:50:14;;;;;;;3.92;2.95;;;21.10;84.50;;;;;;5042404;28;20122;-75
2021/09/10 00:52:41;;;;;;;5.57;2.72;;;21.10;84.00;;;;;;5043289;28;20493;-75
2021/09/10 00:55:08;;;;;;;4.20;2.50;;;21.10;84.00;;;;;;5043561;28;20049;-75
2021/09/10 00:57:35;;;;;;;4.78;2.65;;;21.00;84.00;;;;;;5039766;28;20049;-76
2021/09/10 01:00:04;;;;;;;4.00;2.50;;;21.00;84.10;;;;;;5049701;28;20060;-76
2021/09/10 01:02:32;;;;;;;4.78;2.75;;;21.00;84.20;;;;;;5031526;28;20438;-75
2021/09/10 01:05:00;;;;;;;4.03;2.65;;;21.00;84.20;;;;;;5031202;28;20037;-76
2021/09/10 01:07:27;;;;;;;3.92;2.60;;;20.90;84.20;;;;;;5047096;28;20040;-75
2021/09/10 01:09:55;;;;;;;3.95;2.63;;;20.90;84.30;;;;;;5044684;28;20052;-76
2021/09/10 01:12:22;;;;;;;4.05;2.47;;;20.90;84.40;;;;;;5034377;28;20091;-75
2021/09/10 01:14:50;;;;;;;5.20;2.85;;;20.80;84.40;;;;;;5049160;28;20041;-76
2021/09/10 01:17:18;;;;;;;3.65;2.28;;;20.80;84.50;;;;;;5048336;28;20084;-76
2021/09/10 01:19:45;;;;;;;4.20;2.75;;;20.80;84.50;;;;;;5048532;28;20048;-75
2021/09/10 01:22:12;;;;;;;4.65;2.70;;;20.80;84.60;;;;;;5045552;28;20039;-76
2021/09/10 01:25:00;;;;;;;4.53;2.80;;;20.70;84.70;;;;;;5047385;28;20130;-76
2021/09/10 01:27:26;;;;;;;4.68;2.65;;;20.70;84.80;;;;;;5046893;28;20120;-76
2021/09/10 01:29:53;;;;;;;4.57;2.53;;;20.70;85.00;;;;;;5048166;28;20091;-75
2021/09/10 01:32:20;;;;;;;4.22;3.00;;;20.70;84.90;;;;;;5033720;28;20051;-76
2021/09/10 01:34:47;;;;;;;4.80;2.70;;;20.60;84.90;;;;;;5014688;28;20065;-76
2021/09/10 01:37:14;;;;;;;4.53;2.97;;;20.60;84.90;;;;;;5031344;28;20447;-76
2021/09/10 01:39:41;;;;;;;4.95;2.97;;;20.70;84.90;;;;;;5032532;28;20448;-76
2021/09/10 01:42:08;;;;;;;4.45;2.80;;;20.70;84.80;;;;;;5049703;28;20033;-76
2021/09/10 01:44:35;;;;;;;4.57;2.97;;;20.70;84.80;;;;;;5016385;28;20123;-76
2021/09/10 01:47:02;;;;;;;4.35;2.63;;;20.70;84.80;;;;;;5048672;28;20049;-76
2021/09/10 01:49:29;;;;;;;3.70;2.42;;;20.70;84.80;;;;;;5046675;28;20392;-75
2021/09/10 01:51:56;;;;;;;4.97;2.80;;;20.70;84.80;;;;;;5028780;28;20072;-76
2021/09/10 01:54:24;;;;;;;4.13;2.55;;;20.70;84.90;;;;;;5060970;28;20067;-76
2021/09/10 01:56:50;;;;;;;4.97;2.63;;;20.60;84.90;;;;;;5046458;28;20087;-76
2021/09/10 01:59:18;;;;;;;6.65;4.10;;;20.60;85.00;;;;;;5046382;28;20132;-78
2021/09/10 02:01:45;;;;;;;4.78;3.00;;;20.60;85.00;;;;;;5050215;28;20060;-78
2021/09/10 02:04:12;;;;;;;4.97;3.63;;;20.60;85.10;;;;;;5047919;28;20496;-78
2021/09/10 02:06:39;;;;;;;5.65;3.28;;;20.60;85.10;;;;;;5030357;28;20041;-78
2021/09/10 02:09:06;;;;;;;4.45;3.10;;;20.50;85.80;;;;;;5048079;28;20122;-78
2021/09/10 02:11:33;;;;;;;5.85;3.20;;;20.50;85.30;;;;;;5048942;28;20053;-78
2021/09/10 02:14:00;;;;;;;4.18;3.03;;;20.40;85.30;;;;;;5047509;28;20084;-78
2021/09/10 02:16:27;;;;;;;4.63;2.80;;;20.40;85.50;;;;;;5052133;28;20076;-78
2021/09/10 02:18:54;;;;;;;5.25;3.33;;;20.40;85.50;;;;;;5049691;28;20059;-77
2021/09/10 02:21:21;;;;;;;4.55;2.97;;;20.40;85.60;;;;;;5047770;28;20511;-78
2021/09/10 02:23:48;;;;;;;5.60;3.40;;;20.40;85.60;;;;;;5048162;28;20116;-79
2021/09/10 02:26:15;;;;;;;4.68;2.78;;;20.40;85.60;;;;;;5015583;28;20106;-77
2021/09/10 02:35:35;;;;;;;4.93;3.50;;;20.20;85.50;;;;;;5047152;23;20033;-77
2021/09/10 02:38:02;;;;;;;4.47;3.10;;;20.20;85.70;;;;;;5034734;23;20065;-76
2021/09/10 02:40:30;;;;;;;4.60;3.15;;;20.10;85.70;;;;;;4837279;29;20049;-82
2021/09/10 02:43:07;;;;;;;6.10;2.85;;;20.10;85.80;;;;;;4840241;29;20099;-82
2021/09/10 02:45:48;;;;;;;5.68;3.55;;;20.10;85.90;;;;;;4834970;29;20044;-82
2021/09/10 02:48:15;;;;;;;5.32;3.22;;;20.10;86.00;;;;;;4833499;29;20490;-81
2021/09/10 02:50:42;;;;;;;4.80;3.20;;;20.10;86.00;;;;;;4845221;29;20034;-82
2021/09/10 02:53:10;;;;;;;6.05;3.70;;;20.00;86.00;;;;;;4848657;29;20042;-82
2021/09/10 02:56:10;;;;;;;5.70;3.58;;;20.10;86.00;;;;;;4836736;29;20041;-81
2021/09/10 02:58:39;;;;;;;5.38;3.22;;;20.00;85.90;;;;;;4819536;29;20102;-81
2021/09/10 03:01:07;;;;;;;6.15;4.28;;;20.00;86.10;;;;;;4846721;29;20053;-81
2021/09/10 03:03:35;;;;;;;5.30;3.20;;;19.90;86.10;;;;;;4844177;29;20417;-82
2021/09/10 03:06:11;;;;;;;6.78;3.17;;;19.90;86.10;;;;;;4830026;29;20056;-82
2021/09/10 03:08:44;;;;;;;5.43;3.30;;;19.90;86.20;;;;;;4846319;29;20049;-82
2021/09/10 03:11:12;;;;;;;4.75;2.85;;;19.90;86.20;;;;;;4833476;29;20072;-82
2021/09/10 03:14:37;;;;;;;4.40;2.35;;;19.90;86.20;;;;;;4781123;30;20071;-82
2021/09/10 03:17:47;;;;;;;6.88;4.15;;;19.90;86.20;;;;;;4757213;29;20047;-82
2021/09/10 03:21:03;;;;;;;5.35;3.38;;;19.90;86.20;;;;;;4753026;30;20089;-81
2021/09/10 03:23:35;;;;;;;7.13;3.38;;;19.80;86.20;;;;;;4739389;30;20093;-81
2021/09/10 03:28:55;;;;;;;5.38;3.35;;;19.80;86.50;;;;;;4764229;30;20958;-82
2021/09/10 03:31:23;;;;;;;5.00;3.22;;;19.70;86.50;;;;;;4752759;30;20093;-82
2021/09/10 03:33:50;;;;;;;5.28;3.70;;;19.70;86.50;;;;;;4753232;30;20628;-81
2021/09/10 03:36:21;;;;;;;5.15;3.42;;;19.70;86.50;;;;;;4768433;30;20055;-82
2021/09/10 03:38:50;;;;;;;;;;;19.70;86.50;;;;;;4810782;29;20082;-83
2021/09/10 03:41:17;;;;;;;4.07;2.30;;;19.70;86.50;;;;;;4830930;29;20387;-82
2021/09/10 03:43:56;;;;;;;6.80;5.15;;;19.60;86.60;;;;;;4816146;29;20037;-83
2021/09/10 03:47:09;;;;;;;4.85;3.28;;;19.70;86.70;;;;;;4831174;29;20388;-82
2021/09/10 03:49:41;;;;;;;4.47;2.85;;;19.70;86.50;;;;;;4842616;29;20041;-82
2021/09/10 03:52:08;;;;;;;5.00;2.75;;;19.70;86.60;;;;;;4810587;29;20382;-82
2021/09/10 03:54:38;;;;;;;5.25;3.25;;;19.60;86.60;;;;;;4824147;29;20064;-82
2021/09/10 03:57:06;;;;;;;6.65;3.88;;;19.70;86.70;;;;;;4823211;29;20034;-81
2021/09/10 03:59:33;;;;;;;4.10;2.65;;;19.70;86.70;;;;;;4850175;29;20158;-82
2021/09/10 04:02:02;;;;;;;5.03;3.35;;;19.70;86.70;;;;;;4830941;29;20448;-82
2021/09/10 04:04:50;;;;;;;6.25;4.00;;;19.70;86.70;;;;;;4832350;29;20088;-83
2021/09/10 04:07:31;;;;;;;7.22;3.55;;;19.70;86.80;;;;;;4814266;29;20049;-82
2021/09/10 04:10:23;;;;;;;4.13;3.17;;;19.70;86.80;;;;;;4816388;29;20102;-82
2021/09/10 04:12:55;;;;;;;6.50;2.60;;;19.60;86.90;;;;;;4808137;29;20149;-82
2021/09/10 04:15:26;;;;;;;4.93;3.22;;;19.60;86.90;;;;;;4829310;29;20069;-82
2021/09/10 04:17:54;;;;;;;5.78;3.50;;;19.60;86.90;;;;;;4830107;29;20053;-82
2021/09/10 04:20:21;;;;;;;6.05;3.15;;;19.60;87.00;;;;;;4811413;29;20075;-81
2021/09/10 04:22:48;;;;;;;5.57;3.58;;;19.60;87.00;;;;;;4827014;29;20045;-82
2021/09/10 04:25:16;;;;;;;6.07;3.85;;;19.60;87.00;;;;;;4828382;29;20085;-82
2021/09/10 04:27:43;;;;;;;3.83;2.38;;;19.50;87.10;;;;;;4830250;29;20136;-82
2021/09/10 04:30:14;;;;;;;4.57;3.00;;;19.50;87.10;;;;;;4809790;29;20054;-82
2021/09/10 04:32:41;;;;;;;4.72;2.85;;;19.50;87.10;;;;;;4826774;29;20057;-82
2021/09/10 04:35:11;;;;;;;4.85;2.45;;;19.50;87.10;;;;;;4828716;29;20094;-82
2021/09/10 04:37:40;;;;;;;4.47;2.70;;;19.50;87.10;;;;;;4829746;29;20041;-82
2021/09/10 04:43:52;;;;;;;5.40;2.83;;;19.50;87.00;;;;;;4818875;29;20045;-84
2021/09/10 04:46:40;;;;;;;4.57;2.85;;;19.40;87.80;;;;;;4817326;29;20046;-88
2021/09/10 04:49:07;;;;;;;5.35;3.53;;;19.40;87.20;;;;;;4832247;29;20053;-86
2021/09/10 04:52:13;;;;;;;4.95;2.60;;;19.40;87.30;;;;;;4828421;29;20049;-87
2021/09/10 04:54:41;;;;;;;7.95;3.30;;;19.40;87.20;;;;;;4832110;29;20500;-85
2021/09/10 04:57:08;;;;;;;5.07;3.00;;;19.40;87.30;;;;;;4812540;29;20049;-87
2021/09/10 04:59:35;;;;;;;4.88;2.70;;;19.40;87.30;;;;;;4817049;29;20053;-87
2021/09/10 05:02:02;;;;;;;4.55;2.58;;;19.30;87.20;;;;;;4824212;29;20446;-82
2021/09/10 05:04:41;;;;;;;5.85;2.83;;;19.30;87.30;;;;;;4789391;29;20073;-82
2021/09/10 05:07:14;;;;;;;4.30;2.70;;;19.30;87.30;;;;;;4827429;29;20126;-83
2021/09/10 05:09:41;;;;;;;4.93;2.80;;;19.30;87.40;;;;;;4825001;29;20042;-82
2021/09/10 05:12:51;;;;;;;;;;;;;;;;;;;;;
2021/09/10 05:16:12;;;;;;;5.85;2.97;;;19.30;87.30;;;;;;4774071;29;20087;-81
2021/09/10 05:23:10;;;;;;;4.65;2.40;;;19.30;87.20;;;;;;4730150;30;20480;-82
2021/09/10 05:25:37;;;;;;;3.97;1.85;;;19.20;87.30;;;;;;4743942;30;20067;-82
2021/09/10 05:28:04;;;;;;;2.90;1.80;;;19.20;87.20;;;;;;4782141;29;20112;-81
2021/09/10 05:30:32;;;;;;;3.72;2.00;;;19.30;87.20;;;;;;4780336;29;20051;-82
2021/09/10 05:32:59;;;;;;;3.50;1.90;;;19.30;87.20;;;;;;4766856;30;20055;-82
2021/09/10 05:35:26;;;;;;;4.43;2.47;;;19.40;87.10;;;;;;4753860;29;20051;-82
2021/09/10 05:37:54;;;;;;;3.85;2.20;;;19.40;87.00;;;;;;4753402;30;20053;-82
2021/09/10 05:40:24;;;;;;;4.55;2.15;;;19.50;87.10;;;;;;4752472;30;20048;-83
2021/09/10 05:42:52;;;;;;;3.00;1.80;;;19.50;87.00;;;;;;4751164;30;20532;-82
2021/09/10 05:45:19;;;;;;;4.40;2.20;;;19.50;86.90;;;;;;4769324;29;20290;-83
2021/09/10 05:47:46;;;;;;;4.00;2.30;;;19.60;86.80;;;;;;4756793;30;20437;-82
2021/09/10 05:50:13;;;;;;;4.47;2.00;;;19.70;86.80;;;;;;4771328;29;20063;-82
2021/09/10 05:52:41;;;;;;;3.20;1.65;;;19.80;86.60;;;;;;4784357;29;20159;-82
2021/09/10 05:55:08;;;;;;;3.90;2.40;;;19.90;86.50;;;;;;4745264;30;20135;-82
2021/09/10 05:57:36;;;;;;;3.20;2.05;;;20.00;86.40;;;;;;4768517;29;20044;-82
2021/09/10 06:00:06;;;;;;;3.15;1.80;;;20.10;86.30;;;;;;4758368;29;20564;-82
2021/09/10 06:02:40;;;;;;;4.60;2.90;;;20.10;86.20;;;;;;4771240;30;20130;-83
2021/09/10 06:05:11;;;;;;;3.83;2.05;;;20.20;86.70;;;;;;4795847;29;20119;-83
2021/09/10 06:07:38;;;;;;;5.57;2.95;;;20.30;85.90;;;;;;4818447;29;20049;-83
2021/09/10 06:10:07;;;;;;;5.85;3.85;;;20.40;85.90;;;;;;4844883;29;20073;-84
2021/09/10 06:12:35;;;;;;;4.45;2.45;;;20.50;85.70;;;;;;4831456;29;20061;-83
2021/09/10 06:15:02;;;;;;;5.15;3.72;;;20.60;85.60;;;;;;4833394;29;20133;-83
2021/09/10 06:17:31;;;;;;;5.70;3.97;;;20.60;85.50;;;;;;4828435;29;20058;-82
2021/09/10 06:19:58;;;;;;;4.18;2.58;;;20.60;85.90;;;;;;4838995;29;20130;-83
2021/09/10 06:22:28;;;;;;;6.00;3.70;;;20.70;85.50;;;;;;4825744;29;20052;-80
2021/09/10 06:24:56;;;;;;;3.83;2.20;;;20.70;85.50;;;;;;4813911;29;20034;-88
2021/09/10 06:27:27;;;;;;;5.80;3.53;;;20.80;85.30;;;;;;4828412;29;20057;-85
2021/09/10 06:29:56;;;;;;;4.10;2.55;;;20.90;85.30;;;;;;4826421;29;20443;-81
2021/09/10 06:32:34;;;;;;;5.03;2.88;;;20.90;85.10;;;;;;4808666;29;20081;-81
2021/09/10 06:35:07;;;;;;;4.50;3.30;;;21.00;85.20;;;;;;4825882;29;20224;-82
2021/09/10 06:38:19;;;;;;;3.60;2.30;;;21.00;85.30;;;;;;4830062;29;20102;-93
2021/09/10 06:41:17;;;;;;;5.55;3.30;;;21.00;85.20;;;;;;4830321;29;20149;-90
2021/09/10 06:44:18;;;;;;;5.90;3.15;;;21.00;85.30;;;;;;4818083;29;20047;-90
2021/09/10 06:47:09;;;;;;;5.53;3.20;;;21.00;85.20;;;;;;4812251;29;20051;-82
2021/09/10 06:49:43;;;;;;;4.13;2.30;;;21.00;85.30;;;;;;4837266;29;20102;-82
2021/09/10 06:52:14;;;;;;;3.40;2.17;;;21.00;85.30;;;;;;4835394;29;20053;-81
2021/09/10 06:54:44;;;;;;;3.80;2.30;;;21.10;85.20;;;;;;4825133;29;20049;-80
2021/09/10 06:57:14;;;;;;;4.88;3.13;;;21.20;85.20;;;;;;4816662;29;20065;-77
2021/09/10 06:59:41;;;;;;;4.55;2.70;;;21.20;85.00;;;;;;4809427;29;20050;-80
2021/09/10 07:02:09;;;;;;;3.08;1.92;;;21.20;85.00;;;;;;4821737;29;20140;-80
2021/09/10 07:04:36;;;;;;;4.35;2.60;;;21.30;85.00;;;;;;4829088;29;20054;-85
2021/09/10 07:07:06;;;;;;;6.25;3.80;;;21.30;84.90;;;;;;4824881;29;20047;-85
2021/09/10 07:10:00;;;;;;;5.78;2.60;;;21.30;84.80;;;;;;4802457;29;20117;-82
2021/09/10 07:12:32;;;;;;;4.03;2.40;;;21.40;84.70;;;;;;4825623;29;20114;-82
2021/09/10 07:15:18;;;;;;;3.67;2.20;;;21.40;84.80;;;;;;4820223;29;20352;-82
2021/09/10 07:17:48;;;;;;;5.47;2.15;;;21.40;84.80;;;;;;4832601;29;20102;-81
2021/09/10 07:20:18;;;;;;;4.10;2.70;;;21.40;84.80;;;;;;4818541;29;20038;-81
2021/09/10 07:22:46;;;;;;;4.15;2.53;;;21.40;84.70;;;;;;4811739;29;20050;-81
2021/09/10 07:25:13;;;;;;;5.78;2.72;;;21.40;84.70;;;;;;4825076;29;20061;-79
2021/09/10 07:27:42;;;;;;;4.20;2.10;;;21.40;84.60;;;;;;4811520;29;20149;-80
2021/09/10 07:30:16;;;;;;;4.25;2.60;;;21.40;84.60;;;;;;4825944;29;20060;-87
2021/09/10 07:33:22;;;;;;;4.82;2.67;;;21.50;84.60;;;;;;4827342;29;20050;-87
2021/09/10 07:35:49;;;;;;;6.57;3.22;;;21.50;84.40;;;;;;4833275;29;20136;-82
2021/09/10 07:38:17;;;;;;;3.47;2.20;;;21.40;84.50;;;;;;4794069;29;20065;-80
2021/09/10 07:40:50;;;;;;;3.45;1.73;;;21.50;84.60;;;;;;4829836;29;20077;-81
2021/09/10 07:43:18;;;;;;;3.25;2.25;;;21.40;84.50;;;;;;4819547;29;20056;-79
2021/09/10 07:45:45;;;;;;;2.67;1.70;;;21.50;84.50;;;;;;4811420;29;20061;-79
2021/09/10 07:48:12;;;;;;;3.85;2.50;;;21.50;85.10;;;;;;4811115;29;20081;-78
2021/09/10 07:50:39;;;;;;;3.75;1.90;;;21.50;84.40;;;;;;4825452;29;20056;-79
2021/09/10 07:53:06;;;;;;;2.90;1.48;;;21.60;84.40;;;;;;4808361;29;20079;-79
2021/09/10 07:55:34;;;;;;;3.78;1.42;;;21.60;84.30;;;;;;4833088;29;20081;-79
2021/09/10 07:58:01;;;;;;;2.42;1.40;;;21.70;84.30;;;;;;4813329;29;20042;-78
2021/09/10 08:00:31;;;;;;;2.10;1.20;;;21.70;84.10;;;;;;4813394;29;20494;-83
2021/09/10 08:03:29;;;;;;;;;;;;;;;;;;;;;
2021/09/10 08:07:07;;;;;;;3.50;2.13;;;21.90;83.90;;;;;;4827890;29;20064;-90
2021/09/10 08:09:56;;;;;;;3.20;1.88;;;22.00;83.60;;;;;;4833256;29;20463;-85
2021/09/10 08:12:30;;;;;;;3.88;1.52;;;21.90;83.60;;;;;;4829542;29;20050;-82
2021/09/10 08:14:58;;;;;;;3.75;1.52;;;22.00;83.40;;;;;;4827448;29;20088;-81
2021/09/10 08:17:28;;;;;;;2.67;1.30;;;22.10;84.00;;;;;;4829081;29;20749;-82
2021/09/10 08:19:55;;;;;;;3.60;1.95;;;22.20;83.20;;;;;;4799044;29;20121;-83
2021/09/10 08:22:35;;;;;;;3.85;1.95;;;22.30;83.60;;;;;;4810198;29;20049;-86
2021/09/10 08:25:11;;;;;;;4.43;1.92;;;22.30;82.80;;;;;;4841125;29;20137;-88
2021/09/10 08:31:17;;;;;;;2.72;1.33;;;22.50;82.60;;;;;;4813467;29;20114;-84
2021/09/10 08:33:44;;;;;;;2.78;1.40;;;22.50;82.50;;;;;;4814510;29;20054;-82
2021/09/10 08:36:27;;;;;;;3.78;1.77;;;22.60;82.50;;;;;;4817817;29;20053;-81
2021/09/10 08:38:58;;;;;;;6.38;2.22;;;22.60;82.30;;;;;;4838609;29;20129;-79
2021/09/10 08:41:27;;;;;;;3.65;1.38;;;22.70;82.30;;;;;;4841763;29;20050;-78
2021/09/10 08:44:02;;;;;;;4.28;2.30;;;22.70;82.20;;;;;;4809288;29;20076;-80
2021/09/10 08:46:30;;;;;;;3.10;1.63;;;22.70;82.10;;;;;;4809469;29;20509;-77
2021/09/10 08:48:58;;;;;;;3.67;1.77;;;22.70;82.10;;;;;;4809423;29;20062;-79
2021/09/10 08:51:28;;;;;;;4.43;2.40;;;22.70;82.00;;;;;;4824437;29;20049;-83
2021/09/10 08:53:55;;;;;;;6.45;2.75;;;22.80;82.00;;;;;;4800092;29;20053;-82
2021/09/10 08:56:22;;;;;;;3.00;2.05;;;22.80;81.80;;;;;;4834343;29;20046;-77
2021/09/10 08:58:49;;;;;;;4.18;2.30;;;22.70;81.80;;;;;;4822238;29;20054;-78
2021/09/10 09:01:31;;;;;;;3.90;2.15;;;22.80;81.80;;;;;;4822562;29;20069;-78
2021/09/10 09:04:02;;;;;;;;;;;22.70;81.70;;;;;;4820388;29;20045;-83
2021/09/10 09:06:33;;;;;;;4.80;2.75;;;22.70;81.80;;;;;;4811850;29;19924;-82
2021/09/10 09:09:02;;;;;;;3.45;2.25;;;22.70;81.90;;;;;;4850236;29;20095;-81
2021/09/10 09:11:29;;;;;;;5.57;2.60;;;22.70;81.70;;;;;;4824003;29;20127;-80
2021/09/10 09:13:57;;;;;;;3.65;2.00;;;22.70;81.60;;;;;;4824957;29;20121;-81
2021/09/10 09:16:30;;;;;;;3.92;1.70;;;22.80;81.70;;;;;;4853490;29;20133;-80
2021/09/10 09:19:03;;;;;;;3.47;1.98;;;22.80;81.50;;;;;;4841372;29;20501;-80
2021/09/10 09:21:31;;;;;;;3.53;2.05;;;22.90;81.30;;;;;;4829590;29;20086;-79
2021/09/10 09:24:16;;;;;;;3.20;2.17;;;22.90;81.30;;;;;;4835800;29;20428;-77
2021/09/10 09:26:45;;;;;;;5.10;2.70;;;23.00;81.10;;;;;;4826961;29;20122;-78
2021/09/10 09:29:17;;;;;;;4.57;2.67;;;23.00;81.10;;;;;;4835706;29;20574;-79
2021/09/10 09:31:55;;;;;;;;;;;23.00;80.90;;;;;;4823031;29;20058;-77
2021/09/10 09:34:46;;;;;;;3.67;1.88;;;23.00;80.90;;;;;;4841831;29;19931;-78
2021/09/10 09:37:18;;;;;;;2.83;1.50;;;23.20;80.70;;;;;;4821895;29;20038;-77
2021/09/10 09:39:59;;;;;;;;;;;23.30;80.80;;;;;;4844853;29;20422;-83
2021/09/10 09:42:29;;;;;;;3.65;2.05;;;23.40;80.30;;;;;;4826192;29;19924;-83
2021/09/10 09:45:22;;;;;;;3.40;1.90;;;23.50;80.20;;;;;;4824025;29;20051;-80
2021/09/10 09:47:49;;;;;;;1.80;1.02;;;23.60;79.80;;;;;;4820493;29;20140;-78
2021/09/10 09:50:19;;;;;;;2.65;1.50;;;23.70;79.80;;;;;;4788888;29;20057;-79
2021/09/10 09:52:51;;;;;;;2.15;1.27;;;23.90;79.60;;;;;;4839178;29;20049;-86
2021/09/10 09:55:18;;;;;;;2.33;1.40;;;24.00;79.20;;;;;;4848672;29;20054;-86
2021/09/10 09:57:50;;;;;;;3.95;2.53;;;24.10;79.20;;;;;;4827034;29;20106;-85
2021/09/10 10:00:17;;;;;;;4.53;2.28;;;24.10;78.80;;;;;;4835552;29;20050;-81
2021/09/10 10:02:44;;;;;;;4.40;2.90;;;24.20;78.70;;;;;;4827955;29;20099;-87
2021/09/10 10:05:17;;;;;;;3.53;1.95;;;24.40;78.50;;;;;;4785066;29;20050;-87
2021/09/10 10:08:05;;;;;;;5.07;3.17;;;24.50;78.10;;;;;;4842982;29;20050;-88
2021/09/10 10:10:43;;;;;;;5.57;3.38;;;24.60;77.50;;;;;;4827251;29;20110;-85
2021/09/10 10:13:14;;;;;;;6.20;2.90;;;24.70;77.10;;;;;;4824865;29;20045;-89
2021/09/10 10:15:45;;;;;;;4.60;2.10;;;24.70;77.10;;;;;;4825317;29;20055;-88
2021/09/10 10:18:43;;;;;;;3.08;2.25;;;24.80;77.10;;;;;;4835956;29;20045;-88
2021/09/10 10:21:12;;;;;;;5.05;2.33;;;24.90;76.70;;;;;;4837834;29;20046;-88
2021/09/10 10:23:42;;;;;;;3.55;2.03;;;24.90;77.30;;;;;;4823407;29;20046;-89
2021/09/10 10:26:19;;;;;;;4.65;2.13;;;24.90;76.60;;;;;;4834819;29;20046;-87
2021/09/10 10:28:51;;;;;;;3.50;1.88;;;24.90;76.60;;;;;;4813065;29;20516;-89
2021/09/10 10:31:57;;;;;;;3.00;1.30;;;24.90;76.70;;;;;;4827161;29;20412;-86
2021/09/10 10:34:28;;;;;;;3.83;2.50;;;24.90;76.50;;;;;;4822089;29;20050;-86
2021/09/10 10:36:55;;;;;;;3.90;2.10;;;24.90;76.30;;;;;;4824551;29;20046;-88
2021/09/10 10:39:29;;;;;;;4.32;2.13;;;24.90;76.30;;;;;;4814350;29;20511;-88
2021/09/10 10:42:02;;;;;;;4.18;1.73;;;25.00;76.20;;;;;;4829254;29;20081;-87
2021/09/10 10:44:45;;;;;;;4.03;1.80;;;25.00;75.80;;;;;;4822055;29;20530;-88
2021/09/10 10:47:13;;;;;;;3.30;2.28;;;25.10;75.60;;;;;;4836601;29;20584;-93
2021/09/10 10:49:42;;;;;;;4.35;2.13;;;25.20;75.40;;;;;;4836635;29;20053;-93
2021/09/10 10:52:28;;;;;;;4.00;2.45;;;25.20;75.20;;;;;;4807657;29;20054;-91
2021/09/10 10:55:17;;;;;;;3.13;1.45;;;25.30;75.00;;;;;;4830027;29;20057;-91
2021/09/10 10:57:45;;;;;;;2.95;1.55;;;25.40;75.00;;;;;;4827329;29;20472;-89
2021/09/10 11:00:28;;;;;;;2.10;1.20;;;25.50;75.10;;;;;;4827471;29;20458;-88
2021/09/10 11:03:13;;;;;;;3.08;1.30;;;25.60;74.90;;;;;;4831571;29;20054;-89
2021/09/10 11:05:43;;;;;;;3.35;2.10;;;25.60;74.90;;;;;;4827307;29;20137;-91
2021/09/10 11:08:11;;;;;;;4.00;1.83;;;25.40;75.00;;;;;;4827775;29;20141;-86
2021/09/10 11:10:38;;;;;;;3.08;1.60;;;25.30;75.30;;;;;;4827748;29;20157;-87
2021/09/10 11:13:07;;;;;;;4.15;2.30;;;25.10;75.50;;;;;;4827247;29;20050;-87
2021/09/10 11:15:36;;;;;;;4.18;2.53;;;25.00;75.50;;;;;;4827303;29;20054;-91
2021/09/10 11:18:13;;;;;;;4.78;2.22;;;24.90;75.50;;;;;;4816236;29;20103;-77
2021/09/10 11:20:49;;;;;;;3.47;1.98;;;24.90;75.50;;;;;;4841287;29;20034;-80
2021/09/10 11:23:37;;;;;;;3.95;2.20;;;25.00;75.40;;;;;;4829000;29;20136;-78
2021/09/10 11:26:07;;;;;;;3.45;2.13;;;25.20;75.10;;;;;;4826099;29;20106;-77
2021/09/10 11:28:36;;;;;;;2.75;1.70;;;25.30;74.80;;;;;;4843581;29;20106;-80
2021/09/10 11:31:04;;;;;;;2.72;1.60;;;25.30;74.90;;;;;;4803563;29;20050;-81
2021/09/10 11:33:51;;;;;;;2.40;1.20;;;25.40;74.70;;;;;;4794005;29;20062;-80
2021/09/10 11:36:25;;;;;;;1.83;1.17;;;25.50;74.50;;;;;;4824052;29;20054;-81
2021/09/10 11:39:08;;;;;;;3.20;1.33;;;25.60;74.40;;;;;;4811932;29;20137;-84
2021/09/10 11:41:36;;;;;;;2.88;1.05;;;25.70;73.90;;;;;;4810374;29;20063;-81
2021/09/10 11:44:12;;;;;;;2.33;1.20;;;25.70;74.00;;;;;;4806956;29;20184;-79
2021/09/10 11:46:41;;;;;;;3.33;1.50;;;25.70;73.90;;;;;;4821049;29;20505;-83
2021/09/10 11:49:09;;;;;;;2.95;1.50;;;25.60;73.90;;;;;;4807456;29;20050;-79
2021/09/10 11:51:42;;;;;;;3.13;1.48;;;25.40;74.10;;;;;;4825176;29;20050;-82
2021/09/10 11:54:17;;;;;;;3.80;1.98;;;25.30;74.40;;;;;;4835068;29;20144;-82
2021/09/10 11:56:46;;;;;;;3.78;2.22;;;25.00;74.40;;;;;;4825443;29;20046;-81
2021/09/10 11:59:25;;;;;;;3.40;2.15;;;24.80;74.90;;;;;;4811639;29;20053;-78
2021/09/10 12:01:55;;;;;;;5.63;2.10;;;24.30;75.90;;;;;;4814999;29;20069;-79
2021/09/10 12:04:29;;;;;;;4.30;2.20;;;23.90;76.90;;;;;;4827374;29;20042;-80
2021/09/10 12:07:01;;;;;;;4.38;2.42;;;23.50;77.80;;;;;;4825207;29;20116;-82
2021/09/10 12:09:39;;;;;;;3.65;2.33;;;23.20;78.70;;;;;;4816892;29;20046;-81
2021/09/10 12:12:17;;;;;;;4.93;2.97;;;22.80;79.70;;;;;;4814367;29;20078;-80
2021/09/10 12:14:58;;;;;;;5.93;2.85;;;22.50;80.90;;;;;;4824697;29;20152;-83
2021/09/10 12:17:36;;;;;;;4.57;2.35;;;22.20;81.60;;;;;;4813683;29;20039;-80
2021/09/10 12:20:16;;;;;;;6.10;2.63;;;22.00;82.10;;;;;;4812033;29;20458;-81
2021/09/10 12:22:45;;;;;;;2.45;1.42;;;21.90;82.50;;;;;;4827810;29;20046;-80
2021/09/10 12:25:22;;;;;;;2.80;1.40;;;21.90;83.30;;;;;;4822821;29;20046;-80
2021/09/10 12:28:07;;;;;;;2.50;1.40;;;21.90;82.90;;;;;;4837057;29;20049;-79
2021/09/10 12:31:00;;;;;;;2.75;1.52;;;21.80;83.00;;;;;;4827547;29;20054;-80
2021/09/10 12:33:29;;;;;;;2.63;1.30;;;21.80;83.20;;;;;;4825503;29;20053;-82
2021/09/10 12:36:10;;;;;;;2.50;1.10;;;21.80;83.50;;;;;;4825333;29;20102;-82
2021/09/10 12:38:46;;;;;;;2.63;1.38;;;21.80;83.70;;;;;;4809309;29;20103;-80
2021/09/10 12:41:15;;;;;;;2.10;1.00;;;21.80;83.90;;;;;;4787565;29;20058;-82
2021/09/10 12:43:42;;;;;;;3.15;1.10;;;21.80;84.10;;;;;;4829593;29;20053;-81
2021/09/10 12:46:10;;;;;;;3.20;1.23;;;21.70;84.30;;;;;;4857524;29;20467;-83
2021/09/10 12:48:44;;;;;;;3.92;1.67;;;21.70;84.60;;;;;;4795732;29;20107;-85
2021/09/10 12:51:11;;;;;;;4.50;1.90;;;21.70;84.70;;;;;;4834782;29;20115;-80
2021/09/10 12:53:41;;;;;;;3.65;1.90;;;21.70;85.00;;;;;;4821169;29;20050;-91
2021/09/10 12:56:11;;;;;;;3.83;2.25;;;21.60;85.30;;;;;;4813455;29;20054;-87
2021/09/10 13:07:17;;;;;;;2.83;1.35;;;21.10;86.60;;;;;;4833996;29;20026;-87
2021/09/10 13:09:50;;;;;;;3.75;1.95;;;21.00;87.10;;;;;;4829599;29;20049;-85
2021/09/10 13:12:20;;;;;;;5.18;2.00;;;20.90;87.30;;;;;;4814523;29;20053;-83
2021/09/10 13:14:50;;;;;;;4.15;1.98;;;20.90;87.40;;;;;;4816110;29;20053;-82
2021/09/10 13:17:21;;;;;;;3.90;2.03;;;20.90;87.50;;;;;;4828994;29;20103;-82
2021/09/10 13:19:50;;;;;;;2.80;1.60;;;20.90;87.70;;;;;;4828502;29;20042;-81
2021/09/10 13:22:19;;;;;;;3.03;1.60;;;20.80;87.80;;;;;;4820521;29;20046;-87
2021/09/10 13:24:49;;;;;;;4.35;2.58;;;20.80;88.00;;;;;;4836116;29;20191;-82
2021/09/10 13:27:18;;;;;;;3.95;2.15;;;20.80;88.30;;;;;;4839216;29;20140;-84
2021/09/10 13:29:46;;;;;;;3.33;2.10;;;20.70;88.30;;;;;;4822450;29;20101;-84
2021/09/10 13:32:15;;;;;;;4.80;2.05;;;20.70;89.10;;;;;;4828403;29;20038;-83
2021/09/10 13:35:26;;;;;;;3.63;1.90;;;20.70;88.70;;;;;;4829863;29;20671;-87
2021/09/10 13:38:26;;;;;;;2.10;1.15;;;20.70;88.60;;;;;;4824541;29;20062;-87
2021/09/10 13:41:06;;;;;;;1.88;0.90;;;20.70;88.70;;;;;;4839328;29;20053;-89
2021/09/10 13:43:42;;;;;;;1.90;0.95;;;20.70;88.80;;;;;;4837065;29;20533;-88
2021/09/10 13:46:15;;;;;;;1.88;0.65;;;20.70;88.80;;;;;;4838356;29;20042;-86
2021/09/10 13:48:44;;;;;;;2.53;1.00;;;20.70;88.90;;;;;;4828806;29;20478;-81
2021/09/10 13:51:12;;;;;;;1.67;1.05;;;20.70;88.90;;;;;;4820409;29;20053;-82